sensor_id;sensor_type;location;lat;lon;timestamp;temperature;humidity
48998;DHT22;34807;51.456;7.244;2022-11-20T00:02:10;3.90;89.10
48998;DHT22;34807;51.456;7.244;2022-11-20T00:04:35;3.90;89.10
48998;DHT22;34807;51.456;7.244;2022-11-20T00:07:01;3.90;89.20
48998;DHT22;34807;51.456;7.244;2022-11-20T00:09:26;4.00;89.20
48998;DHT22;34807;51.456;7.244;2022-11-20T00:11:51;4.00;89.20
48998;DHT22;34807;51.456;7.244;2022-11-20T00:14:17;4.00;89.20
48998;DHT22;34807;51.456;7.244;2022-11-20T00:16:42;4.00;89.30
48998;DHT22;34807;51.456;7.244;2022-11-20T00:19:08;3.90;89.30
48998;DHT22;34807;51.456;7.244;2022-11-20T00:21:34;4.00;89.20
48998;DHT22;34807;51.456;7.244;2022-11-20T00:23:59;4.00;89.30
48998;DHT22;34807;51.456;7.244;2022-11-20T00:26:26;4.00;89.40
48998;DHT22;34807;51.456;7.244;2022-11-20T00:29:01;4.00;89.40
48998;DHT22;34807;51.456;7.244;2022-11-20T00:31:27;4.00;89.40
48998;DHT22;34807;51.456;7.244;2022-11-20T00:33:52;4.00;89.40
48998;DHT22;34807;51.456;7.244;2022-11-20T00:36:25;4.00;89.40
48998;DHT22;34807;51.456;7.244;2022-11-20T00:38:51;4.00;89.40
48998;DHT22;34807;51.456;7.244;2022-11-20T00:41:16;4.00;89.40
48998;DHT22;34807;51.456;7.244;2022-11-20T00:43:42;4.10;89.50
48998;DHT22;34807;51.456;7.244;2022-11-20T00:46:09;4.10;89.60
48998;DHT22;34807;51.456;7.244;2022-11-20T00:48:34;4.10;89.50
48998;DHT22;34807;51.456;7.244;2022-11-20T00:51:00;4.10;89.60
48998;DHT22;34807;51.456;7.244;2022-11-20T00:53:26;4.00;89.50
48998;DHT22;34807;51.456;7.244;2022-11-20T00:58:20;4.10;89.60
48998;DHT22;34807;51.456;7.244;2022-11-20T01:00:46;4.10;89.50
48998;DHT22;34807;51.456;7.244;2022-11-20T01:03:11;4.10;89.50
48998;DHT22;34807;51.456;7.244;2022-11-20T01:05:37;4.10;89.60
48998;DHT22;34807;51.456;7.244;2022-11-20T01:08:02;4.10;89.60
48998;DHT22;34807;51.456;7.244;2022-11-20T01:10:28;4.10;89.60
48998;DHT22;34807;51.456;7.244;2022-11-20T01:12:54;4.10;89.60
48998;DHT22;34807;51.456;7.244;2022-11-20T01:15:39;4.20;89.80
48998;DHT22;34807;51.456;7.244;2022-11-20T01:18:05;4.10;89.60
48998;DHT22;34807;51.456;7.244;2022-11-20T01:20:34;4.10;89.70
48998;DHT22;34807;51.456;7.244;2022-11-20T01:22:59;4.10;89.70
48998;DHT22;34807;51.456;7.244;2022-11-20T01:25:25;4.10;89.80
48998;DHT22;34807;51.456;7.244;2022-11-20T01:27:50;4.10;89.80
48998;DHT22;34807;51.456;7.244;2022-11-20T01:30:16;4.10;89.90
48998;DHT22;34807;51.456;7.244;2022-11-20T01:32:41;4.10;89.80
48998;DHT22;34807;51.456;7.244;2022-11-20T01:35:07;4.10;89.80
48998;DHT22;34807;51.456;7.244;2022-11-20T01:37:34;4.10;89.80
48998;DHT22;34807;51.456;7.244;2022-11-20T01:40:00;4.10;89.90
48998;DHT22;34807;51.456;7.244;2022-11-20T01:42:25;4.10;89.80
48998;DHT22;34807;51.456;7.244;2022-11-20T01:47:53;4.10;89.90
48998;DHT22;34807;51.456;7.244;2022-11-20T01:50:23;4.00;89.90
48998;DHT22;34807;51.456;7.244;2022-11-20T01:52:51;4.10;89.90
48998;DHT22;34807;51.456;7.244;2022-11-20T01:55:18;4.10;89.90
48998;DHT22;34807;51.456;7.244;2022-11-20T01:57:44;4.10;89.90
48998;DHT22;34807;51.456;7.244;2022-11-20T02:00:12;4.10;89.90
48998;DHT22;34807;51.456;7.244;2022-11-20T02:02:38;4.10;89.90
48998;DHT22;34807;51.456;7.244;2022-11-20T02:05:09;4.10;89.90
48998;DHT22;34807;51.456;7.244;2022-11-20T02:07:40;4.10;90.00
48998;DHT22;34807;51.456;7.244;2022-11-20T02:10:06;4.10;90.00
48998;DHT22;34807;51.456;7.244;2022-11-20T02:12:32;4.10;90.00
48998;DHT22;34807;51.456;7.244;2022-11-20T02:15:16;4.10;90.00
48998;DHT22;34807;51.456;7.244;2022-11-20T02:17:41;4.10;90.00
48998;DHT22;34807;51.456;7.244;2022-11-20T02:20:07;4.10;90.00
48998;DHT22;34807;51.456;7.244;2022-11-20T02:22:35;4.10;90.00
48998;DHT22;34807;51.456;7.244;2022-11-20T02:25:02;4.10;90.00
48998;DHT22;34807;51.456;7.244;2022-11-20T02:27:29;4.10;90.10
48998;DHT22;34807;51.456;7.244;2022-11-20T02:30:00;4.10;90.10
48998;DHT22;34807;51.456;7.244;2022-11-20T02:32:30;4.10;90.00
48998;DHT22;34807;51.456;7.244;2022-11-20T02:34:56;4.20;90.10
48998;DHT22;34807;51.456;7.244;2022-11-20T02:37:22;4.20;90.10
48998;DHT22;34807;51.456;7.244;2022-11-20T02:39:49;4.20;90.10
48998;DHT22;34807;51.456;7.244;2022-11-20T02:42:15;4.10;90.10
48998;DHT22;34807;51.456;7.244;2022-11-20T02:44:40;4.20;90.20
48998;DHT22;34807;51.456;7.244;2022-11-20T02:47:06;4.10;90.20
48998;DHT22;34807;51.456;7.244;2022-11-20T02:49:32;4.20;90.20
48998;DHT22;34807;51.456;7.244;2022-11-20T02:51:58;4.20;90.20
48998;DHT22;34807;51.456;7.244;2022-11-20T02:54:24;4.10;90.20
48998;DHT22;34807;51.456;7.244;2022-11-20T02:56:49;4.20;90.20
48998;DHT22;34807;51.456;7.244;2022-11-20T02:59:15;4.10;90.20
48998;DHT22;34807;51.456;7.244;2022-11-20T03:01:40;4.20;90.20
48998;DHT22;34807;51.456;7.244;2022-11-20T03:04:06;4.20;90.30
48998;DHT22;34807;51.456;7.244;2022-11-20T03:06:31;4.20;90.30
48998;DHT22;34807;51.456;7.244;2022-11-20T03:08:57;4.20;90.30
48998;DHT22;34807;51.456;7.244;2022-11-20T03:11:22;4.10;90.30
48998;DHT22;34807;51.456;7.244;2022-11-20T03:13:47;4.20;90.30
48998;DHT22;34807;51.456;7.244;2022-11-20T03:16:15;4.20;90.40
48998;DHT22;34807;51.456;7.244;2022-11-20T03:18:41;4.20;90.40
48998;DHT22;34807;51.456;7.244;2022-11-20T03:21:07;4.20;90.40
48998;DHT22;34807;51.456;7.244;2022-11-20T03:23:33;4.20;90.40
48998;DHT22;34807;51.456;7.244;2022-11-20T03:26:18;4.20;90.40
48998;DHT22;34807;51.456;7.244;2022-11-20T03:28:54;4.20;90.40
48998;DHT22;34807;51.456;7.244;2022-11-20T03:31:22;4.20;90.50
48998;DHT22;34807;51.456;7.244;2022-11-20T03:33:47;4.20;90.50
48998;DHT22;34807;51.456;7.244;2022-11-20T03:36:13;4.20;90.50
48998;DHT22;34807;51.456;7.244;2022-11-20T03:38:39;4.20;90.50
48998;DHT22;34807;51.456;7.244;2022-11-20T03:41:09;4.20;90.50
48998;DHT22;34807;51.456;7.244;2022-11-20T03:43:34;4.30;90.50
48998;DHT22;34807;51.456;7.244;2022-11-20T03:46:00;4.30;90.50
48998;DHT22;34807;51.456;7.244;2022-11-20T03:48:26;4.20;90.50
48998;DHT22;34807;51.456;7.244;2022-11-20T03:50:52;4.30;90.50
48998;DHT22;34807;51.456;7.244;2022-11-20T03:53:18;4.20;90.60
48998;DHT22;34807;51.456;7.244;2022-11-20T03:55:43;4.30;90.60
48998;DHT22;34807;51.456;7.244;2022-11-20T03:58:09;4.30;90.60
48998;DHT22;34807;51.456;7.244;2022-11-20T04:00:35;4.30;90.60
48998;DHT22;34807;51.456;7.244;2022-11-20T04:03:01;4.30;90.60
48998;DHT22;34807;51.456;7.244;2022-11-20T04:05:26;4.30;90.60
48998;DHT22;34807;51.456;7.244;2022-11-20T04:07:52;4.30;90.60
48998;DHT22;34807;51.456;7.244;2022-11-20T04:10:17;4.30;90.60
48998;DHT22;34807;51.456;7.244;2022-11-20T04:12:43;4.30;90.70
48998;DHT22;34807;51.456;7.244;2022-11-20T04:15:08;4.30;90.70
48998;DHT22;34807;51.456;7.244;2022-11-20T04:17:34;4.30;90.70
48998;DHT22;34807;51.456;7.244;2022-11-20T04:20:00;4.30;90.70
48998;DHT22;34807;51.456;7.244;2022-11-20T04:22:25;4.30;90.70
48998;DHT22;34807;51.456;7.244;2022-11-20T04:24:51;4.30;90.70
48998;DHT22;34807;51.456;7.244;2022-11-20T04:27:16;4.40;90.80
48998;DHT22;34807;51.456;7.244;2022-11-20T04:29:42;4.30;90.80
48998;DHT22;34807;51.456;7.244;2022-11-20T04:32:07;4.30;90.80
48998;DHT22;34807;51.456;7.244;2022-11-20T04:34:33;4.30;90.80
48998;DHT22;34807;51.456;7.244;2022-11-20T04:36:58;4.30;90.80
48998;DHT22;34807;51.456;7.244;2022-11-20T04:39:24;4.40;90.90
48998;DHT22;34807;51.456;7.244;2022-11-20T04:41:49;4.30;90.80
48998;DHT22;34807;51.456;7.244;2022-11-20T04:44:35;4.40;90.90
48998;DHT22;34807;51.456;7.244;2022-11-20T04:47:00;4.40;90.90
48998;DHT22;34807;51.456;7.244;2022-11-20T04:49:26;4.40;90.90
48998;DHT22;34807;51.456;7.244;2022-11-20T04:51:54;4.40;90.90
48998;DHT22;34807;51.456;7.244;2022-11-20T04:54:19;4.40;90.90
48998;DHT22;34807;51.456;7.244;2022-11-20T04:56:48;4.40;90.90
48998;DHT22;34807;51.456;7.244;2022-11-20T04:59:13;4.40;90.90
48998;DHT22;34807;51.456;7.244;2022-11-20T05:01:39;4.40;90.90
48998;DHT22;34807;51.456;7.244;2022-11-20T05:04:04;4.40;91.00
48998;DHT22;34807;51.456;7.244;2022-11-20T05:06:30;4.40;91.00
48998;DHT22;34807;51.456;7.244;2022-11-20T05:08:56;4.40;91.00
48998;DHT22;34807;51.456;7.244;2022-11-20T05:11:21;4.40;91.00
48998;DHT22;34807;51.456;7.244;2022-11-20T05:13:50;4.40;91.00
48998;DHT22;34807;51.456;7.244;2022-11-20T05:16:17;4.40;91.00
48998;DHT22;34807;51.456;7.244;2022-11-20T05:18:42;4.40;91.10
48998;DHT22;34807;51.456;7.244;2022-11-20T05:21:08;4.40;91.00
48998;DHT22;34807;51.456;7.244;2022-11-20T05:23:34;4.40;91.10
48998;DHT22;34807;51.456;7.244;2022-11-20T05:26:00;4.30;91.10
48998;DHT22;34807;51.456;7.244;2022-11-20T05:28:26;4.40;91.10
48998;DHT22;34807;51.456;7.244;2022-11-20T05:30:52;4.40;91.10
48998;DHT22;34807;51.456;7.244;2022-11-20T05:33:18;4.40;91.10
48998;DHT22;34807;51.456;7.244;2022-11-20T05:35:44;4.40;91.10
48998;DHT22;34807;51.456;7.244;2022-11-20T05:38:09;4.40;91.10
48998;DHT22;34807;51.456;7.244;2022-11-20T05:40:35;4.40;91.10
48998;DHT22;34807;51.456;7.244;2022-11-20T05:43:01;4.40;91.10
48998;DHT22;34807;51.456;7.244;2022-11-20T05:45:26;4.30;91.10
48998;DHT22;34807;51.456;7.244;2022-11-20T05:47:52;4.40;91.10
48998;DHT22;34807;51.456;7.244;2022-11-20T05:50:17;4.40;91.10
48998;DHT22;34807;51.456;7.244;2022-11-20T05:52:43;4.40;91.10
48998;DHT22;34807;51.456;7.244;2022-11-20T05:55:08;4.40;91.20
48998;DHT22;34807;51.456;7.244;2022-11-20T05:57:34;4.40;91.20
48998;DHT22;34807;51.456;7.244;2022-11-20T06:00:00;4.40;91.20
48998;DHT22;34807;51.456;7.244;2022-11-20T06:02:25;4.40;91.20
48998;DHT22;34807;51.456;7.244;2022-11-20T06:04:51;4.40;91.20
48998;DHT22;34807;51.456;7.244;2022-11-20T06:07:16;4.40;91.20
48998;DHT22;34807;51.456;7.244;2022-11-20T06:09:42;4.40;91.20
48998;DHT22;34807;51.456;7.244;2022-11-20T06:12:07;4.40;91.20
48998;DHT22;34807;51.456;7.244;2022-11-20T06:14:33;4.40;91.20
48998;DHT22;34807;51.456;7.244;2022-11-20T06:16:58;4.40;91.20
48998;DHT22;34807;51.456;7.244;2022-11-20T06:19:24;4.40;91.20
48998;DHT22;34807;51.456;7.244;2022-11-20T06:21:49;4.40;91.20
48998;DHT22;34807;51.456;7.244;2022-11-20T06:24:15;4.40;91.30
48998;DHT22;34807;51.456;7.244;2022-11-20T06:26:41;4.40;91.30
48998;DHT22;34807;51.456;7.244;2022-11-20T06:29:06;4.40;91.20
48998;DHT22;34807;51.456;7.244;2022-11-20T06:31:32;4.40;91.30
48998;DHT22;34807;51.456;7.244;2022-11-20T06:34:00;4.30;91.30
48998;DHT22;34807;51.456;7.244;2022-11-20T06:36:26;4.30;91.30
48998;DHT22;34807;51.456;7.244;2022-11-20T06:38:52;4.40;91.30
48998;DHT22;34807;51.456;7.244;2022-11-20T06:41:18;4.30;91.30
48998;DHT22;34807;51.456;7.244;2022-11-20T06:43:44;4.30;91.30
48998;DHT22;34807;51.456;7.244;2022-11-20T06:46:10;4.30;91.30
48998;DHT22;34807;51.456;7.244;2022-11-20T06:48:36;4.30;91.30
48998;DHT22;34807;51.456;7.244;2022-11-20T06:51:05;4.40;91.30
48998;DHT22;34807;51.456;7.244;2022-11-20T06:53:31;4.30;91.30
48998;DHT22;34807;51.456;7.244;2022-11-20T06:55:57;4.30;91.30
48998;DHT22;34807;51.456;7.244;2022-11-20T06:58:28;4.30;91.30
48998;DHT22;34807;51.456;7.244;2022-11-20T07:00:57;4.30;91.30
48998;DHT22;34807;51.456;7.244;2022-11-20T07:03:23;4.30;91.30
48998;DHT22;34807;51.456;7.244;2022-11-20T07:05:48;4.30;91.30
48998;DHT22;34807;51.456;7.244;2022-11-20T07:08:14;4.30;91.30
48998;DHT22;34807;51.456;7.244;2022-11-20T07:10:39;4.30;91.30
48998;DHT22;34807;51.456;7.244;2022-11-20T07:13:05;4.30;91.30
48998;DHT22;34807;51.456;7.244;2022-11-20T07:15:32;4.30;91.30
48998;DHT22;34807;51.456;7.244;2022-11-20T07:18:01;4.30;91.30
48998;DHT22;34807;51.456;7.244;2022-11-20T07:20:27;4.20;91.30
48998;DHT22;34807;51.456;7.244;2022-11-20T07:22:53;4.20;91.30
48998;DHT22;34807;51.456;7.244;2022-11-20T07:25:18;4.30;91.30
48998;DHT22;34807;51.456;7.244;2022-11-20T07:27:44;4.20;91.30
48998;DHT22;34807;51.456;7.244;2022-11-20T07:30:09;4.30;91.30
48998;DHT22;34807;51.456;7.244;2022-11-20T07:32:35;4.30;91.20
48998;DHT22;34807;51.456;7.244;2022-11-20T07:35:00;4.30;91.20
48998;DHT22;34807;51.456;7.244;2022-11-20T07:37:26;4.30;91.20
48998;DHT22;34807;51.456;7.244;2022-11-20T07:39:51;4.20;91.10
48998;DHT22;34807;51.456;7.244;2022-11-20T07:42:17;4.20;91.10
48998;DHT22;34807;51.456;7.244;2022-11-20T07:44:42;4.20;91.10
48998;DHT22;34807;51.456;7.244;2022-11-20T07:47:08;4.20;91.10
48998;DHT22;34807;51.456;7.244;2022-11-20T07:49:33;4.20;91.20
48998;DHT22;34807;51.456;7.244;2022-11-20T07:51:59;4.30;91.10
48998;DHT22;34807;51.456;7.244;2022-11-20T07:54:24;4.20;91.10
48998;DHT22;34807;51.456;7.244;2022-11-20T07:56:50;4.20;91.10
48998;DHT22;34807;51.456;7.244;2022-11-20T07:59:15;4.20;91.20
48998;DHT22;34807;51.456;7.244;2022-11-20T08:01:41;4.20;91.20
48998;DHT22;34807;51.456;7.244;2022-11-20T08:04:07;4.20;91.10
48998;DHT22;34807;51.456;7.244;2022-11-20T08:06:32;4.20;91.10
48998;DHT22;34807;51.456;7.244;2022-11-20T08:08:58;4.20;91.10
48998;DHT22;34807;51.456;7.244;2022-11-20T08:11:24;4.20;91.10
48998;DHT22;34807;51.456;7.244;2022-11-20T08:14:08;4.20;91.10
48998;DHT22;34807;51.456;7.244;2022-11-20T08:16:36;4.20;91.10
48998;DHT22;34807;51.456;7.244;2022-11-20T08:19:02;4.20;91.10
48998;DHT22;34807;51.456;7.244;2022-11-20T08:21:27;4.20;91.10
48998;DHT22;34807;51.456;7.244;2022-11-20T08:23:53;4.20;91.20
48998;DHT22;34807;51.456;7.244;2022-11-20T08:26:18;4.20;91.10
48998;DHT22;34807;51.456;7.244;2022-11-20T08:28:45;4.20;91.20
48998;DHT22;34807;51.456;7.244;2022-11-20T08:31:11;4.20;91.20
48998;DHT22;34807;51.456;7.244;2022-11-20T08:33:36;4.20;91.10
48998;DHT22;34807;51.456;7.244;2022-11-20T08:36:03;4.20;91.20
48998;DHT22;34807;51.456;7.244;2022-11-20T08:38:29;4.20;91.10
48998;DHT22;34807;51.456;7.244;2022-11-20T08:40:58;4.30;91.20
48998;DHT22;34807;51.456;7.244;2022-11-20T08:43:42;4.30;91.10
48998;DHT22;34807;51.456;7.244;2022-11-20T08:46:07;4.20;91.10
48998;DHT22;34807;51.456;7.244;2022-11-20T08:48:33;4.20;91.10
48998;DHT22;34807;51.456;7.244;2022-11-20T08:50:58;4.20;91.10
48998;DHT22;34807;51.456;7.244;2022-11-20T08:53:24;4.20;91.20
48998;DHT22;34807;51.456;7.244;2022-11-20T08:55:50;4.20;91.20
48998;DHT22;34807;51.456;7.244;2022-11-20T08:58:15;4.20;91.20
48998;DHT22;34807;51.456;7.244;2022-11-20T09:00:41;4.30;91.20
48998;DHT22;34807;51.456;7.244;2022-11-20T09:03:06;4.30;91.20
48998;DHT22;34807;51.456;7.244;2022-11-20T09:05:32;4.20;91.20
48998;DHT22;34807;51.456;7.244;2022-11-20T09:07:58;4.30;91.20
48998;DHT22;34807;51.456;7.244;2022-11-20T09:10:23;4.20;91.20
48998;DHT22;34807;51.456;7.244;2022-11-20T09:12:49;4.30;91.20
48998;DHT22;34807;51.456;7.244;2022-11-20T09:15:14;4.20;91.20
48998;DHT22;34807;51.456;7.244;2022-11-20T09:17:40;4.30;91.20
48998;DHT22;34807;51.456;7.244;2022-11-20T09:20:05;4.30;91.20
48998;DHT22;34807;51.456;7.244;2022-11-20T09:22:31;4.30;91.20
48998;DHT22;34807;51.456;7.244;2022-11-20T09:24:56;4.30;91.20
48998;DHT22;34807;51.456;7.244;2022-11-20T09:27:22;4.30;91.20
48998;DHT22;34807;51.456;7.244;2022-11-20T09:29:47;4.30;91.20
48998;DHT22;34807;51.456;7.244;2022-11-20T09:32:13;4.30;91.20
48998;DHT22;34807;51.456;7.244;2022-11-20T09:34:38;4.30;91.20
48998;DHT22;34807;51.456;7.244;2022-11-20T09:37:04;4.30;91.20
48998;DHT22;34807;51.456;7.244;2022-11-20T09:39:29;4.40;91.30
48998;DHT22;34807;51.456;7.244;2022-11-20T09:41:58;4.40;91.30
48998;DHT22;34807;51.456;7.244;2022-11-20T09:44:40;4.40;91.20
48998;DHT22;34807;51.456;7.244;2022-11-20T09:47:11;4.40;91.30
48998;DHT22;34807;51.456;7.244;2022-11-20T09:54:41;4.60;91.20
48998;DHT22;34807;51.456;7.244;2022-11-20T09:57:10;4.60;91.20
48998;DHT22;34807;51.456;7.244;2022-11-20T09:59:43;4.60;91.20
48998;DHT22;34807;51.456;7.244;2022-11-20T10:02:25;4.60;91.20
48998;DHT22;34807;51.456;7.244;2022-11-20T10:05:04;4.70;91.10
48998;DHT22;34807;51.456;7.244;2022-11-20T10:07:37;4.80;91.10
48998;DHT22;34807;51.456;7.244;2022-11-20T10:10:04;4.80;91.10
48998;DHT22;34807;51.456;7.244;2022-11-20T10:15:01;4.80;91.00
48998;DHT22;34807;51.456;7.244;2022-11-20T10:17:55;4.90;91.10
48998;DHT22;34807;51.456;7.244;2022-11-20T10:25:31;5.00;91.00
48998;DHT22;34807;51.456;7.244;2022-11-20T10:30:42;5.10;91.00
48998;DHT22;34807;51.456;7.244;2022-11-20T10:35:39;5.10;90.90
48998;DHT22;34807;51.456;7.244;2022-11-20T10:38:09;5.20;90.90
48998;DHT22;34807;51.456;7.244;2022-11-20T10:40:38;5.20;90.90
48998;DHT22;34807;51.456;7.244;2022-11-20T10:50:47;5.40;90.90
48998;DHT22;34807;51.456;7.244;2022-11-20T10:53:22;5.40;90.80
48998;DHT22;34807;51.456;7.244;2022-11-20T10:55:54;5.40;90.90
48998;DHT22;34807;51.456;7.244;2022-11-20T10:58:36;5.40;90.90
48998;DHT22;34807;51.456;7.244;2022-11-20T11:01:06;5.50;90.90
48998;DHT22;34807;51.456;7.244;2022-11-20T11:03:38;5.50;90.90
48998;DHT22;34807;51.456;7.244;2022-11-20T11:06:08;5.50;90.90
48998;DHT22;34807;51.456;7.244;2022-11-20T11:08:39;5.60;90.90
48998;DHT22;34807;51.456;7.244;2022-11-20T11:11:23;5.60;90.90
48998;DHT22;34807;51.456;7.244;2022-11-20T11:13:49;5.60;90.90
48998;DHT22;34807;51.456;7.244;2022-11-20T11:16:24;5.60;91.00
48998;DHT22;34807;51.456;7.244;2022-11-20T11:18:50;5.60;91.30
48998;DHT22;34807;51.456;7.244;2022-11-20T11:21:25;5.60;90.90
48998;DHT22;34807;51.456;7.244;2022-11-20T11:23:59;5.70;91.00
48998;DHT22;34807;51.456;7.244;2022-11-20T11:26:24;5.70;91.00
48998;DHT22;34807;51.456;7.244;2022-11-20T11:29:00;5.70;91.00
48998;DHT22;34807;51.456;7.244;2022-11-20T11:31:30;5.70;91.30
48998;DHT22;34807;51.456;7.244;2022-11-20T11:34:12;5.70;91.00
48998;DHT22;34807;51.456;7.244;2022-11-20T11:36:37;5.70;91.00
48998;DHT22;34807;51.456;7.244;2022-11-20T11:39:03;5.80;91.00
48998;DHT22;34807;51.456;7.244;2022-11-20T11:41:31;5.80;91.00
48998;DHT22;34807;51.456;7.244;2022-11-20T11:44:01;5.80;90.90
48998;DHT22;34807;51.456;7.244;2022-11-20T11:46:52;5.80;90.90
48998;DHT22;34807;51.456;7.244;2022-11-20T11:49:18;5.90;90.90
48998;DHT22;34807;51.456;7.244;2022-11-20T11:54:18;6.00;90.90
48998;DHT22;34807;51.456;7.244;2022-11-20T11:56:44;6.00;90.90
48998;DHT22;34807;51.456;7.244;2022-11-20T11:59:12;6.00;90.90
48998;DHT22;34807;51.456;7.244;2022-11-20T12:01:39;6.10;90.80
48998;DHT22;34807;51.456;7.244;2022-11-20T12:04:14;6.10;90.80
48998;DHT22;34807;51.456;7.244;2022-11-20T12:06:45;6.10;90.80
48998;DHT22;34807;51.456;7.244;2022-11-20T12:09:13;6.10;90.80
48998;DHT22;34807;51.456;7.244;2022-11-20T12:11:55;6.10;90.80
48998;DHT22;34807;51.456;7.244;2022-11-20T12:14:57;6.10;90.90
48998;DHT22;34807;51.456;7.244;2022-11-20T12:17:17;6.10;90.90
48998;DHT22;34807;51.456;7.244;2022-11-20T12:19:43;6.10;91.00
48998;DHT22;34807;51.456;7.244;2022-11-20T12:22:25;6.10;91.00
48998;DHT22;34807;51.456;7.244;2022-11-20T12:30:10;6.10;91.00
48998;DHT22;34807;51.456;7.244;2022-11-20T12:40:51;6.20;91.10
48998;DHT22;34807;51.456;7.244;2022-11-20T12:43:20;6.20;91.10
48998;DHT22;34807;51.456;7.244;2022-11-20T12:46:08;6.20;91.10
48998;DHT22;34807;51.456;7.244;2022-11-20T12:51:54;6.10;91.20
48998;DHT22;34807;51.456;7.244;2022-11-20T12:54:18;6.20;91.20
48998;DHT22;34807;51.456;7.244;2022-11-20T13:07:10;6.10;91.30
48998;DHT22;34807;51.456;7.244;2022-11-20T13:09:39;6.10;91.30
48998;DHT22;34807;51.456;7.244;2022-11-20T13:14:47;6.10;91.40
48998;DHT22;34807;51.456;7.244;2022-11-20T13:17:30;6.10;91.40
48998;DHT22;34807;51.456;7.244;2022-11-20T13:19:58;6.10;91.40
48998;DHT22;34807;51.456;7.244;2022-11-20T13:22:25;6.10;91.40
48998;DHT22;34807;51.456;7.244;2022-11-20T13:24:51;6.10;91.40
48998;DHT22;34807;51.456;7.244;2022-11-20T13:27:18;6.10;91.40
48998;DHT22;34807;51.456;7.244;2022-11-20T13:29:45;6.10;91.40
48998;DHT22;34807;51.456;7.244;2022-11-20T13:32:13;6.10;91.50
48998;DHT22;34807;51.456;7.244;2022-11-20T13:34:39;6.10;91.50
48998;DHT22;34807;51.456;7.244;2022-11-20T13:37:05;6.10;91.50
48998;DHT22;34807;51.456;7.244;2022-11-20T13:39:32;6.10;91.50
48998;DHT22;34807;51.456;7.244;2022-11-20T13:41:59;6.10;91.50
48998;DHT22;34807;51.456;7.244;2022-11-20T13:44:38;6.10;91.50
48998;DHT22;34807;51.456;7.244;2022-11-20T13:47:04;6.10;91.50
48998;DHT22;34807;51.456;7.244;2022-11-20T13:49:41;6.10;91.60
48998;DHT22;34807;51.456;7.244;2022-11-20T14:00:17;6.10;91.50
48998;DHT22;34807;51.456;7.244;2022-11-20T14:02:44;6.10;91.60
48998;DHT22;34807;51.456;7.244;2022-11-20T14:05:22;6.10;91.60
48998;DHT22;34807;51.456;7.244;2022-11-20T14:07:48;6.10;91.60
48998;DHT22;34807;51.456;7.244;2022-11-20T14:10:25;6.10;91.60
48998;DHT22;34807;51.456;7.244;2022-11-20T14:12:51;6.10;91.60
48998;DHT22;34807;51.456;7.244;2022-11-20T14:15:24;6.10;91.60
48998;DHT22;34807;51.456;7.244;2022-11-20T14:17:49;6.10;91.60
48998;DHT22;34807;51.456;7.244;2022-11-20T14:20:15;6.10;91.60
48998;DHT22;34807;51.456;7.244;2022-11-20T14:22:47;6.10;91.60
48998;DHT22;34807;51.456;7.244;2022-11-20T14:27:42;6.10;91.60
48998;DHT22;34807;51.456;7.244;2022-11-20T14:30:15;6.10;91.60
48998;DHT22;34807;51.456;7.244;2022-11-20T14:32:41;6.10;91.90
48998;DHT22;34807;51.456;7.244;2022-11-20T14:35:08;6.10;91.70
48998;DHT22;34807;51.456;7.244;2022-11-20T14:37:36;6.10;91.70
48998;DHT22;34807;51.456;7.244;2022-11-20T14:40:02;6.10;91.70
48998;DHT22;34807;51.456;7.244;2022-11-20T14:42:28;6.10;91.70
48998;DHT22;34807;51.456;7.244;2022-11-20T14:44:56;6.10;91.70
48998;DHT22;34807;51.456;7.244;2022-11-20T14:47:23;6.10;91.70
48998;DHT22;34807;51.456;7.244;2022-11-20T14:49:50;6.10;91.80
48998;DHT22;34807;51.456;7.244;2022-11-20T14:52:18;6.10;91.80
48998;DHT22;34807;51.456;7.244;2022-11-20T14:54:45;6.10;91.80
48998;DHT22;34807;51.456;7.244;2022-11-20T14:57:20;6.10;91.80
48998;DHT22;34807;51.456;7.244;2022-11-20T14:59:46;6.10;91.80
48998;DHT22;34807;51.456;7.244;2022-11-20T15:02:11;6.10;91.80
48998;DHT22;34807;51.456;7.244;2022-11-20T15:04:50;6.10;91.90
48998;DHT22;34807;51.456;7.244;2022-11-20T15:07:26;6.10;91.90
48998;DHT22;34807;51.456;7.244;2022-11-20T15:12:26;6.10;92.00
48998;DHT22;34807;51.456;7.244;2022-11-20T15:14:52;6.10;92.00
48998;DHT22;34807;51.456;7.244;2022-11-20T15:17:17;6.10;92.00
48998;DHT22;34807;51.456;7.244;2022-11-20T15:19:43;6.00;92.00
48998;DHT22;34807;51.456;7.244;2022-11-20T15:22:12;6.00;92.10
48998;DHT22;34807;51.456;7.244;2022-11-20T15:24:41;6.00;92.10
48998;DHT22;34807;51.456;7.244;2022-11-20T15:27:07;6.00;92.10
48998;DHT22;34807;51.456;7.244;2022-11-20T15:29:33;6.00;92.10
48998;DHT22;34807;51.456;7.244;2022-11-20T15:31:58;6.00;92.20
48998;DHT22;34807;51.456;7.244;2022-11-20T15:34:26;6.00;92.20
48998;DHT22;34807;51.456;7.244;2022-11-20T15:36:51;6.00;92.20
48998;DHT22;34807;51.456;7.244;2022-11-20T15:39:18;6.00;92.20
48998;DHT22;34807;51.456;7.244;2022-11-20T15:41:43;6.00;92.20
48998;DHT22;34807;51.456;7.244;2022-11-20T15:44:09;6.00;92.20
48998;DHT22;34807;51.456;7.244;2022-11-20T15:46:35;6.00;92.20
48998;DHT22;34807;51.456;7.244;2022-11-20T15:49:08;6.00;92.20
48998;DHT22;34807;51.456;7.244;2022-11-20T15:51:35;6.00;92.20
48998;DHT22;34807;51.456;7.244;2022-11-20T15:54:08;6.00;92.30
48998;DHT22;34807;51.456;7.244;2022-11-20T15:56:34;6.00;92.30
48998;DHT22;34807;51.456;7.244;2022-11-20T15:59:00;6.00;92.30
48998;DHT22;34807;51.456;7.244;2022-11-20T16:01:25;6.00;92.30
48998;DHT22;34807;51.456;7.244;2022-11-20T16:03:51;6.00;92.40
48998;DHT22;34807;51.456;7.244;2022-11-20T16:06:17;6.00;92.40
48998;DHT22;34807;51.456;7.244;2022-11-20T16:08:42;5.90;92.40
48998;DHT22;34807;51.456;7.244;2022-11-20T16:11:10;6.00;92.40
48998;DHT22;34807;51.456;7.244;2022-11-20T16:13:35;5.90;92.40
48998;DHT22;34807;51.456;7.244;2022-11-20T16:16:26;5.90;92.40
48998;DHT22;34807;51.456;7.244;2022-11-20T16:18:54;5.90;92.40
48998;DHT22;34807;51.456;7.244;2022-11-20T16:21:19;5.90;92.40
48998;DHT22;34807;51.456;7.244;2022-11-20T16:23:45;5.90;92.50
48998;DHT22;34807;51.456;7.244;2022-11-20T16:26:13;5.90;92.50
48998;DHT22;34807;51.456;7.244;2022-11-20T16:28:39;5.90;92.50
48998;DHT22;34807;51.456;7.244;2022-11-20T16:31:15;5.90;92.50
48998;DHT22;34807;51.456;7.244;2022-11-20T16:33:41;5.90;92.50
48998;DHT22;34807;51.456;7.244;2022-11-20T16:36:16;5.90;92.50
48998;DHT22;34807;51.456;7.244;2022-11-20T16:38:41;5.90;92.50
48998;DHT22;34807;51.456;7.244;2022-11-20T16:41:07;5.90;92.50
48998;DHT22;34807;51.456;7.244;2022-11-20T16:46:10;5.90;92.60
48998;DHT22;34807;51.456;7.244;2022-11-20T16:48:36;5.90;92.60
48998;DHT22;34807;51.456;7.244;2022-11-20T16:51:01;5.90;92.60
48998;DHT22;34807;51.456;7.244;2022-11-20T16:53:27;5.90;92.60
48998;DHT22;34807;51.456;7.244;2022-11-20T16:55:52;5.90;92.60
48998;DHT22;34807;51.456;7.244;2022-11-20T16:58:17;5.90;92.60
48998;DHT22;34807;51.456;7.244;2022-11-20T17:00:43;5.90;92.60
48998;DHT22;34807;51.456;7.244;2022-11-20T17:03:09;5.90;92.70
48998;DHT22;34807;51.456;7.244;2022-11-20T17:05:34;5.90;92.70
48998;DHT22;34807;51.456;7.244;2022-11-20T17:08:00;5.90;92.70